Time;durP1;ratioP1;P1;durP2;ratioP2;P2;SDS_P1;SDS_P2;PMS_P1;PMS_P2;Temp;Humidity;BMP_temperature;BMP_pressure;BME280_temperature;BME280_humidity;BME280_pressure;Samples;Min_cycle;Max_cycle;Signal;HPM_P1;HPM_P2
2022/04/04 00:01:40;;;;;;;3.78;1.70;;;15.20;37.00;;;;;;5119203;27;20085;-58
2022/04/04 00:04:07;;;;;;;2.35;1.30;;;15.20;37.00;;;;;;5137597;27;20015;-57
2022/04/04 00:06:34;;;;;;;4.20;1.75;;;15.20;37.00;;;;;;5137550;27;20100;-59
2022/04/04 00:08:59;;;;;;;2.83;1.63;;;15.20;36.90;;;;;;5119004;27;20031;-58
2022/04/04 00:11:25;;;;;;;2.72;1.50;;;15.20;37.00;;;;;;5137622;27;20019;-57
2022/04/04 00:13:52;;;;;;;2.55;1.50;;;15.20;37.00;;;;;;5137662;27;20016;-58
2022/04/04 00:16:17;;;;;;;2.85;1.50;;;15.20;37.10;;;;;;5137506;27;20497;-59
2022/04/04 00:18:44;;;;;;;2.17;1.23;;;15.20;37.00;;;;;;5119459;27;20019;-59
2022/04/04 00:21:11;;;;;;;2.40;1.52;;;15.10;37.00;;;;;;5137779;27;20517;-59
2022/04/04 00:23:37;;;;;;;2.97;1.30;;;15.10;36.90;;;;;;5138082;27;20027;-59
2022/04/04 00:26:04;;;;;;;4.38;1.60;;;15.10;36.90;;;;;;5137739;27;20019;-58
2022/04/04 00:28:31;;;;;;;1.58;1.08;;;15.10;36.90;;;;;;5137740;27;20041;-59
2022/04/04 00:30:57;;;;;;;2.60;1.90;;;15.10;37.00;;;;;;5138278;27;20557;-59
2022/04/04 00:33:23;;;;;;;2.10;1.50;;;15.10;36.90;;;;;;5138329;27;20011;-59
2022/04/04 00:35:49;;;;;;;2.50;1.50;;;15.10;36.90;;;;;;5138188;27;20060;-59
2022/04/04 00:38:16;;;;;;;2.90;1.52;;;15.00;36.90;;;;;;5138510;27;20094;-58
2022/04/04 00:40:43;;;;;;;1.60;1.38;;;15.10;36.80;;;;;;5138146;27;20024;-58
2022/04/04 00:43:09;;;;;;;1.75;1.42;;;15.00;36.80;;;;;;5138291;27;20019;-58
2022/04/04 00:45:35;;;;;;;1.35;1.10;;;15.00;36.80;;;;;;5138145;27;20050;-59
2022/04/04 00:48:02;;;;;;;3.38;1.50;;;15.10;36.90;;;;;;5137886;27;20106;-58
2022/04/04 00:50:28;;;;;;;1.45;1.20;;;15.00;37.00;;;;;;5136805;27;20019;-59
2022/04/04 00:52:54;;;;;;;2.47;1.45;;;15.00;37.00;;;;;;5136334;27;20084;-59
2022/04/04 00:55:20;;;;;;;3.83;1.60;;;15.00;36.90;;;;;;5136610;27;20012;-59
2022/04/04 00:57:46;;;;;;;2.70;1.35;;;15.00;36.90;;;;;;5136557;27;20018;-59
2022/04/04 01:00:12;;;;;;;1.90;1.20;;;15.00;36.90;;;;;;5136582;27;20377;-59
2022/04/04 01:02:41;;;;;;;2.70;1.50;;;15.00;36.90;;;;;;5136427;27;20095;-59
2022/04/04 01:05:07;;;;;;;2.65;1.20;;;15.00;37.40;;;;;;5136822;27;20019;-58
2022/04/04 01:07:36;;;;;;;2.08;1.40;;;15.00;36.80;;;;;;5136713;27;20042;-59
2022/04/04 01:10:01;;;;;;;2.78;1.30;;;15.00;36.80;;;;;;5101302;27;20023;-58
2022/04/04 01:12:28;;;;;;;2.50;1.60;;;15.00;36.80;;;;;;5136518;27;20019;-58
2022/04/04 01:14:54;;;;;;;1.90;1.10;;;15.00;36.80;;;;;;5136841;27;20011;-58
2022/04/04 01:17:27;;;;;;;3.00;1.60;;;15.00;36.90;;;;;;5136750;27;20830;-57
2022/04/04 01:19:53;;;;;;;3.05;1.50;;;15.10;36.80;;;;;;5136677;27;20030;-58
2022/04/04 01:22:19;;;;;;;1.77;1.13;;;15.00;36.80;;;;;;5136329;27;20039;-59
2022/04/04 01:24:45;;;;;;;2.58;1.50;;;15.00;36.90;;;;;;5136459;27;20099;-58
2022/04/04 01:27:12;;;;;;;3.10;1.40;;;15.00;36.90;;;;;;5136246;27;20080;-59
2022/04/04 01:29:38;;;;;;;2.47;1.30;;;15.00;36.80;;;;;;5136205;27;20012;-59
2022/04/04 01:32:05;;;;;;;2.33;1.27;;;15.00;36.90;;;;;;5118029;27;20015;-58
2022/04/04 01:34:31;;;;;;;1.13;0.98;;;15.00;37.00;;;;;;5136057;27;20019;-59
2022/04/04 01:36:57;;;;;;;1.67;1.20;;;15.00;36.90;;;;;;5136128;27;20020;-58
2022/04/04 01:39:24;;;;;;;2.30;1.40;;;15.00;36.90;;;;;;5135672;27;20507;-59
2022/04/04 01:41:50;;;;;;;1.98;1.23;;;14.90;36.80;;;;;;5117495;27;20102;-58
2022/04/04 01:44:16;;;;;;;3.92;1.20;;;15.00;36.90;;;;;;5117686;27;20092;-58
2022/04/04 01:46:42;;;;;;;2.72;1.15;;;15.00;36.90;;;;;;5135389;27;20020;-58
2022/04/04 01:49:09;;;;;;;1.70;1.30;;;15.00;36.90;;;;;;5135699;27;20034;-58
2022/04/04 01:51:37;;;;;;;1.88;1.20;;;15.00;36.80;;;;;;5135239;27;20090;-58
2022/04/04 01:54:04;;;;;;;2.25;1.27;;;14.90;36.90;;;;;;5135169;27;20004;-58
2022/04/04 01:56:29;;;;;;;1.65;1.45;;;14.90;36.90;;;;;;5116802;27;20110;-58
2022/04/04 01:58:56;;;;;;;2.25;1.15;;;14.90;36.90;;;;;;5135393;27;20039;-59
2022/04/04 02:01:23;;;;;;;2.03;1.23;;;14.90;36.90;;;;;;5135382;27;20019;-58
2022/04/04 02:03:53;;;;;;;3.42;1.50;;;14.90;36.90;;;;;;5134980;27;20013;-59
2022/04/04 02:06:19;;;;;;;2.63;1.48;;;14.90;36.90;;;;;;5135463;27;20054;-59
2022/04/04 02:08:45;;;;;;;1.88;1.35;;;14.90;36.90;;;;;;5117315;27;20007;-59
2022/04/04 02:11:11;;;;;;;1.48;1.25;;;14.90;36.90;;;;;;5135496;27;20426;-59
2022/04/04 02:13:37;;;;;;;2.03;1.05;;;14.90;36.90;;;;;;5135471;27;20074;-59
2022/04/04 02:16:04;;;;;;;3.65;1.58;;;14.90;36.90;;;;;;5135405;27;20011;-58
2022/04/04 02:18:31;;;;;;;3.65;1.38;;;14.90;36.90;;;;;;5135200;27;20474;-59
2022/04/04 02:20:58;;;;;;;2.80;1.50;;;14.90;36.90;;;;;;5134771;27;20015;-59
2022/04/04 02:23:23;;;;;;;1.80;1.33;;;14.90;37.00;;;;;;5115817;27;20431;-59
2022/04/04 02:25:50;;;;;;;2.50;1.42;;;14.80;36.90;;;;;;5134811;27;20461;-59
2022/04/04 02:28:16;;;;;;;2.78;1.40;;;14.80;37.00;;;;;;5134867;27;20649;-59
2022/04/04 02:30:42;;;;;;;2.78;1.50;;;14.80;36.90;;;;;;5116591;27;20106;-59
2022/04/04 02:33:09;;;;;;;2.28;1.23;;;14.80;37.00;;;;;;5135358;27;20082;-59
2022/04/04 02:35:34;;;;;;;3.78;1.40;;;14.90;37.00;;;;;;5135424;27;20046;-59
2022/04/04 02:38:00;;;;;;;3.08;1.35;;;14.80;37.00;;;;;;5135236;27;20516;-59
2022/04/04 02:40:27;;;;;;;2.03;1.40;;;14.80;37.00;;;;;;5135120;27;20023;-58
2022/04/04 02:42:53;;;;;;;3.65;1.35;;;14.80;36.90;;;;;;5116312;27;20441;-60
2022/04/04 02:45:19;;;;;;;2.78;1.60;;;14.80;37.00;;;;;;5134673;27;20583;-59
2022/04/04 02:47:45;;;;;;;1.70;1.45;;;14.80;37.50;;;;;;5134958;27;20027;-59
2022/04/04 02:50:11;;;;;;;2.83;1.50;;;14.80;37.00;;;;;;5134756;27;20381;-59
2022/04/04 02:52:37;;;;;;;2.45;1.45;;;14.80;37.00;;;;;;5134549;27;20015;-59
2022/04/04 02:56:28;;;;;;;1.83;1.20;;;14.80;37.00;;;;;;5134557;27;20147;-58
2022/04/04 02:57:49;;;;;;;1.70;1.10;;;14.80;37.00;;;;;;5119278;27;20435;-60
2022/04/04 03:00:17;;;;;;;2.20;1.40;;;14.80;37.00;;;;;;5116771;27;20018;-60
2022/04/04 03:02:44;;;;;;;2.80;1.40;;;14.80;37.10;;;;;;5134439;27;20082;-59
2022/04/04 03:05:10;;;;;;;1.80;1.30;;;14.80;37.10;;;;;;5134643;27;20019;-60
2022/04/04 03:07:35;;;;;;;2.83;1.45;;;14.80;37.10;;;;;;5135044;27;20028;-60
2022/04/04 03:10:02;;;;;;;2.53;1.50;;;14.80;37.00;;;;;;5135070;27;20072;-60
2022/04/04 03:12:29;;;;;;;2.30;1.40;;;14.80;37.10;;;;;;5134887;27;20011;-60
2022/04/04 03:14:55;;;;;;;4.32;1.38;;;14.80;37.10;;;;;;5134775;27;20034;-60
2022/04/04 03:17:21;;;;;;;2.60;1.70;;;14.70;37.00;;;;;;5134649;27;20034;-60
2022/04/04 03:19:47;;;;;;;1.95;1.48;;;14.80;37.00;;;;;;5116492;28;20015;-60
2022/04/04 03:22:14;;;;;;;1.88;1.38;;;14.80;36.90;;;;;;5134854;28;20043;-61
2022/04/04 03:24:40;;;;;;;1.83;1.23;;;15.00;36.70;;;;;;5118283;28;20385;-60
2022/04/04 03:27:07;;;;;;;2.95;1.80;;;15.10;36.60;;;;;;5135592;28;20111;-60
2022/04/04 03:29:33;;;;;;;2.53;1.50;;;15.20;36.50;;;;;;5135740;28;20019;-60
2022/04/04 03:31:59;;;;;;;2.47;1.60;;;15.20;36.20;;;;;;5134652;28;20031;-59
2022/04/04 03:34:27;;;;;;;2.35;1.70;;;15.30;36.20;;;;;;5118214;27;20015;-60
2022/04/04 03:36:53;;;;;;;2.38;1.58;;;15.40;36.00;;;;;;5140026;27;20121;-60
2022/04/04 03:39:18;;;;;;;2.20;1.38;;;15.50;35.90;;;;;;5121300;27;20508;-60
2022/04/04 03:41:45;;;;;;;3.42;1.98;;;15.60;35.70;;;;;;5139831;27;20011;-60
2022/04/04 03:44:12;;;;;;;1.73;1.40;;;15.70;35.70;;;;;;5140304;27;20039;-60
2022/04/04 03:46:38;;;;;;;1.92;1.35;;;15.80;35.40;;;;;;5139915;27;20038;-59
2022/04/04 03:49:05;;;;;;;3.63;1.70;;;15.90;35.30;;;;;;5140715;27;20011;-59
2022/04/04 03:51:30;;;;;;;2.72;1.60;;;16.00;35.10;;;;;;5140026;27;20011;-61
2022/04/04 03:53:57;;;;;;;2.03;1.52;;;16.00;34.90;;;;;;5104250;27;20019;-59
2022/04/04 03:56:23;;;;;;;3.22;1.65;;;16.10;34.90;;;;;;5138656;27;20099;-59
2022/04/04 03:58:49;;;;;;;4.50;1.75;;;16.20;34.90;;;;;;5138650;27;20099;-60
2022/04/04 04:01:16;;;;;;;2.60;1.33;;;16.30;34.80;;;;;;5138659;27;20045;-60
2022/04/04 04:03:41;;;;;;;1.92;1.52;;;16.30;34.70;;;;;;5138700;27;20023;-60
2022/04/04 04:06:14;;;;;;;2.55;1.73;;;16.50;34.40;;;;;;5141105;27;20092;-60
2022/04/04 04:08:46;;;;;;;3.00;1.48;;;16.60;33.80;;;;;;5140972;27;20102;-60
2022/04/04 04:11:13;;;;;;;3.08;1.63;;;16.70;34.10;;;;;;5141154;27;20020;-60
2022/04/04 04:13:42;;;;;;;3.30;1.55;;;16.80;34.00;;;;;;5141808;27;20015;-61
2022/04/04 04:16:13;;;;;;;3.60;1.55;;;16.90;33.90;;;;;;5142203;27;20496;-60
2022/04/04 04:18:39;;;;;;;3.10;1.50;;;17.00;34.30;;;;;;5141744;27;20019;-60
2022/04/04 04:21:06;;;;;;;4.75;1.73;;;17.00;33.60;;;;;;5137253;27;20039;-59
2022/04/04 04:23:32;;;;;;;2.70;1.30;;;17.10;33.50;;;;;;5137353;27;20022;-59
2022/04/04 04:25:59;;;;;;;4.07;1.50;;;17.20;33.40;;;;;;5137474;27;20018;-61
2022/04/04 04:28:26;;;;;;;2.10;1.40;;;17.30;33.40;;;;;;5137444;27;20028;-59
2022/04/04 04:30:52;;;;;;;4.97;1.58;;;17.40;33.20;;;;;;5137489;27;20012;-59
2022/04/04 04:33:18;;;;;;;2.53;1.50;;;17.50;33.10;;;;;;5137343;27;20415;-59
2022/04/04 04:35:47;;;;;;;2.25;1.30;;;17.60;32.90;;;;;;5137609;27;20003;-61
2022/04/04 04:38:13;;;;;;;2.47;1.50;;;17.70;32.90;;;;;;5137341;27;20019;-60
2022/04/04 04:40:39;;;;;;;3.22;1.50;;;17.80;32.70;;;;;;5137370;27;20500;-60
2022/04/04 04:43:05;;;;;;;3.00;1.50;;;17.90;32.60;;;;;;5137589;27;20015;-59
2022/04/04 04:45:31;;;;;;;3.15;1.10;;;18.00;32.50;;;;;;5137456;27;20011;-60
2022/04/04 04:47:58;;;;;;;2.75;1.10;;;18.10;32.30;;;;;;5137721;27;20553;-60
2022/04/04 04:50:24;;;;;;;2.03;1.33;;;18.20;32.20;;;;;;5139034;27;20015;-60
2022/04/04 04:52:50;;;;;;;2.85;1.48;;;18.30;32.00;;;;;;5122211;27;20470;-61
2022/04/04 04:55:18;;;;;;;2.45;1.27;;;18.40;31.90;;;;;;5121425;27;20018;-61
2022/04/04 04:57:44;;;;;;;4.35;1.48;;;18.50;32.40;;;;;;5139373;27;20099;-60
2022/04/04 05:00:12;;;;;;;3.70;1.27;;;18.60;31.80;;;;;;5138716;27;20047;-61
2022/04/04 05:02:37;;;;;;;2.90;1.30;;;18.70;31.60;;;;;;5139347;27;20019;-61
2022/04/04 05:05:05;;;;;;;2.50;1.42;;;18.80;31.50;;;;;;5119905;27;20095;-60
2022/04/04 05:07:32;;;;;;;3.75;1.70;;;18.80;31.40;;;;;;5136582;27;20560;-60
2022/04/04 05:09:58;;;;;;;2.15;1.35;;;18.90;31.40;;;;;;5136994;27;20047;-60
2022/04/04 05:12:23;;;;;;;2.17;1.58;;;19.00;31.30;;;;;;5118468;27;20020;-60
2022/04/04 05:14:49;;;;;;;2.92;1.55;;;19.00;31.20;;;;;;5118377;27;20615;-60
2022/04/04 05:17:15;;;;;;;2.10;1.35;;;19.10;31.10;;;;;;5118216;27;20507;-61
2022/04/04 05:19:42;;;;;;;2.17;1.30;;;19.20;31.10;;;;;;5137742;27;20015;-60
2022/04/04 05:22:08;;;;;;;2.58;1.33;;;19.30;31.00;;;;;;5116135;28;20054;-61
2022/04/04 05:24:35;;;;;;;2.50;1.30;;;19.30;30.90;;;;;;5116779;28;20087;-61
2022/04/04 05:27:00;;;;;;;2.72;1.50;;;19.40;30.90;;;;;;5117165;28;20032;-60
2022/04/04 05:29:26;;;;;;;3.08;1.55;;;19.40;30.80;;;;;;5116650;28;20020;-61
2022/04/04 05:31:55;;;;;;;2.65;1.60;;;19.40;30.80;;;;;;5116973;28;20458;-60
2022/04/04 05:34:22;;;;;;;6.50;1.42;;;19.50;30.80;;;;;;5117472;28;20022;-60
2022/04/04 05:36:48;;;;;;;2.90;1.38;;;19.50;30.70;;;;;;5118775;27;20539;-60
2022/04/04 05:39:14;;;;;;;1.63;1.17;;;19.60;30.70;;;;;;5118468;28;20023;-60
2022/04/04 05:41:41;;;;;;;3.28;1.50;;;19.60;30.70;;;;;;5117954;28;20012;-60
2022/04/04 05:44:06;;;;;;;3.67;1.60;;;19.70;30.70;;;;;;5116332;28;20530;-60
2022/04/04 05:46:35;;;;;;;2.47;1.42;;;19.70;30.60;;;;;;5084240;28;20470;-61
2022/04/04 05:49:01;;;;;;;2.13;1.40;;;19.70;30.60;;;;;;5119668;28;20008;-60
2022/04/04 05:51:28;;;;;;;2.40;1.30;;;19.70;30.60;;;;;;5119646;28;20012;-61
2022/04/04 05:53:54;;;;;;;1.63;1.20;;;19.80;30.60;;;;;;5118912;28;20065;-61
2022/04/04 05:56:21;;;;;;;2.40;1.52;;;19.80;30.60;;;;;;5118799;28;20011;-59
2022/04/04 05:58:48;;;;;;;2.10;1.45;;;19.80;30.60;;;;;;5117108;28;20015;-60
2022/04/04 06:01:15;;;;;;;2.72;1.30;;;19.90;30.50;;;;;;5118194;28;20012;-59
2022/04/04 06:03:41;;;;;;;2.38;1.40;;;19.90;30.50;;;;;;5116525;28;20060;-59
2022/04/04 06:06:08;;;;;;;1.92;1.48;;;19.90;30.50;;;;;;5114729;28;20061;-58
2022/04/04 06:08:33;;;;;;;4.03;1.48;;;20.00;30.40;;;;;;5113619;28;20110;-58
2022/04/04 06:10:59;;;;;;;2.83;1.42;;;20.10;30.40;;;;;;5113567;28;20491;-58
2022/04/04 06:13:25;;;;;;;3.42;1.73;;;20.10;30.40;;;;;;5114817;28;20011;-57
2022/04/04 06:15:52;;;;;;;2.30;1.23;;;20.10;30.40;;;;;;5114579;28;20030;-60
2022/04/04 06:18:18;;;;;;;1.90;1.42;;;20.20;30.40;;;;;;5114239;28;20434;-59
2022/04/04 06:20:44;;;;;;;1.88;1.17;;;20.10;30.30;;;;;;5112970;28;20016;-59
2022/04/04 06:23:11;;;;;;;2.65;1.45;;;20.20;30.30;;;;;;5134474;27;20176;-59
2022/04/04 06:25:38;;;;;;;4.40;1.45;;;20.20;30.90;;;;;;5135049;27;20060;-59
2022/04/04 06:28:05;;;;;;;2.65;1.52;;;20.20;30.40;;;;;;5134902;27;20126;-59
2022/04/04 06:30:31;;;;;;;3.83;1.58;;;20.20;30.30;;;;;;5135499;27;20044;-60
2022/04/04 06:32:57;;;;;;;1.98;1.20;;;20.20;30.30;;;;;;5135190;27;20413;-59
2022/04/04 06:35:24;;;;;;;3.95;1.77;;;20.30;30.30;;;;;;5117280;27;20016;-59
2022/04/04 06:37:51;;;;;;;2.80;1.52;;;20.30;30.30;;;;;;5134797;27;20043;-59
2022/04/04 06:40:17;;;;;;;2.72;1.58;;;20.30;30.30;;;;;;5134758;27;20045;-58
2022/04/04 06:42:43;;;;;;;2.53;1.40;;;20.40;30.40;;;;;;5099148;27;20373;-59
2022/04/04 06:45:10;;;;;;;2.13;1.38;;;20.30;30.30;;;;;;5134803;27;20023;-59
2022/04/04 06:47:36;;;;;;;3.67;1.33;;;20.40;30.40;;;;;;5134738;27;20023;-59
2022/04/04 06:50:02;;;;;;;2.97;1.50;;;20.40;30.40;;;;;;5134679;27;20521;-59
2022/04/04 06:52:28;;;;;;;2.45;1.38;;;20.40;30.30;;;;;;5116594;27;20008;-59
2022/04/04 06:54:54;;;;;;;2.78;1.42;;;20.50;30.40;;;;;;5135038;27;20007;-59
2022/04/04 06:57:20;;;;;;;2.50;1.50;;;20.50;30.40;;;;;;5134982;27;20058;-59
2022/04/04 06:59:47;;;;;;;6.53;1.70;;;20.50;30.30;;;;;;5134786;27;20111;-59
2022/04/04 07:02:13;;;;;;;3.40;1.60;;;20.50;30.30;;;;;;5134510;27;20014;-59
2022/04/04 07:04:40;;;;;;;2.95;1.80;;;20.60;30.30;;;;;;5116648;27;20019;-59
2022/04/04 07:07:06;;;;;;;3.22;1.60;;;20.60;30.30;;;;;;5134251;27;20084;-59
2022/04/04 07:09:32;;;;;;;4.28;1.90;;;20.60;30.30;;;;;;5134429;27;20011;-59
2022/04/04 07:11:57;;;;;;;3.90;1.70;;;20.60;30.30;;;;;;5134129;27;20374;-59
2022/04/04 07:14:26;;;;;;;5.50;1.80;;;20.70;30.30;;;;;;5134086;27;20050;-59
2022/04/04 07:17:09;;;;;;;5.20;1.77;;;20.70;30.30;;;;;;5132843;27;20496;-59
2022/04/04 07:19:35;;;;;;;4.32;1.80;;;20.60;30.30;;;;;;5134554;27;20020;-58
2022/04/04 07:22:01;;;;;;;4.88;1.85;;;20.70;30.30;;;;;;5134572;27;20557;-59
2022/04/04 07:24:27;;;;;;;3.22;2.08;;;20.70;30.30;;;;;;5134830;28;20024;-59
2022/04/04 07:26:53;;;;;;;5.90;2.15;;;20.70;30.30;;;;;;5134706;28;20139;-57
2022/04/04 07:29:19;;;;;;;3.47;1.73;;;20.80;30.30;;;;;;5115997;28;20023;-58
2022/04/04 07:31:45;;;;;;;4.40;1.80;;;20.80;30.20;;;;;;5116241;28;20021;-58
2022/04/04 07:34:11;;;;;;;3.30;1.75;;;20.80;30.30;;;;;;5098964;28;20106;-58
2022/04/04 07:36:37;;;;;;;5.25;2.33;;;20.80;30.30;;;;;;5115712;28;20380;-58
2022/04/04 07:39:07;;;;;;;4.32;2.10;;;20.90;30.30;;;;;;5133945;28;20098;-58
2022/04/04 07:41:33;;;;;;;4.95;2.25;;;20.90;30.30;;;;;;5134086;28;20007;-58
2022/04/04 07:43:59;;;;;;;2.97;1.80;;;20.90;30.30;;;;;;5134025;28;20038;-58
2022/04/04 07:46:25;;;;;;;5.68;1.90;;;20.90;30.40;;;;;;5116102;28;20012;-59
2022/04/04 07:48:54;;;;;;;4.10;1.85;;;20.90;30.40;;;;;;5134784;28;20382;-59
2022/04/04 07:51:21;;;;;;;3.75;1.98;;;20.90;30.40;;;;;;5136526;28;20031;-59
2022/04/04 07:53:47;;;;;;;5.00;1.80;;;21.00;30.40;;;;;;5136053;28;20453;-59
2022/04/04 07:56:13;;;;;;;3.80;2.15;;;21.00;30.40;;;;;;5135671;28;20095;-59
2022/04/04 07:58:39;;;;;;;6.82;1.83;;;21.00;30.30;;;;;;5117266;28;20051;-58
2022/04/04 08:01:05;;;;;;;6.88;1.83;;;21.00;30.30;;;;;;5135697;28;20019;-60
2022/04/04 08:03:31;;;;;;;5.80;1.90;;;21.00;30.30;;;;;;5117259;28;20516;-59
2022/04/04 08:05:57;;;;;;;3.03;1.85;;;21.10;30.40;;;;;;5135523;28;20023;-59
2022/04/04 08:08:24;;;;;;;3.90;1.90;;;21.00;30.40;;;;;;5117611;28;20389;-58
2022/04/04 08:10:50;;;;;;;6.75;2.10;;;21.10;30.40;;;;;;5135470;28;20014;-59
2022/04/04 08:13:15;;;;;;;9.70;2.05;;;21.10;30.30;;;;;;5135643;28;20019;-59
2022/04/04 08:15:41;;;;;;;3.88;1.98;;;21.10;30.30;;;;;;5117233;28;20046;-57
2022/04/04 08:18:07;;;;;;;3.20;1.58;;;21.10;30.30;;;;;;5134970;28;20466;-58
2022/04/04 08:20:34;;;;;;;4.07;1.73;;;21.10;30.30;;;;;;5100585;27;20072;-58
2022/04/04 08:22:59;;;;;;;4.38;2.00;;;21.10;30.20;;;;;;5137103;27;20070;-58
2022/04/04 08:25:26;;;;;;;3.90;1.98;;;21.20;30.30;;;;;;5137234;27;20529;-59
2022/04/04 08:27:51;;;;;;;6.75;2.20;;;21.20;30.20;;;;;;5136955;27;20019;-58
2022/04/04 08:30:17;;;;;;;6.45;1.65;;;21.10;30.20;;;;;;5137269;27;20026;-58
2022/04/04 08:32:44;;;;;;;7.25;2.05;;;21.20;30.30;;;;;;5137370;27;19999;-58
2022/04/04 08:35:11;;;;;;;3.28;1.60;;;21.20;30.30;;;;;;5119161;27;20016;-58
2022/04/04 08:37:37;;;;;;;5.57;1.83;;;21.20;30.30;;;;;;5136903;27;20011;-59
2022/04/04 08:40:05;;;;;;;4.22;1.52;;;21.20;30.40;;;;;;5118554;27;20022;-58
2022/04/04 08:42:31;;;;;;;5.25;1.80;;;21.20;30.40;;;;;;5137249;27;20027;-60
2022/04/04 08:44:58;;;;;;;5.70;1.92;;;21.20;30.40;;;;;;5137962;27;20038;-59
2022/04/04 08:47:25;;;;;;;9.55;2.20;;;21.20;30.40;;;;;;5137996;27;20023;-58
2022/04/04 08:49:54;;;;;;;4.28;1.65;;;21.20;30.50;;;;;;5119475;27;20511;-58
2022/04/04 08:52:20;;;;;;;3.70;1.65;;;21.20;30.50;;;;;;5137574;27;20027;-58
2022/04/04 08:54:47;;;;;;;4.60;1.50;;;21.20;30.50;;;;;;5137606;27;20469;-57
2022/04/04 08:57:13;;;;;;;6.03;1.80;;;21.30;30.50;;;;;;5137772;27;20034;-59
2022/04/04 08:59:39;;;;;;;4.78;1.95;;;21.20;30.60;;;;;;5136906;27;20099;-59
2022/04/04 09:02:05;;;;;;;8.40;1.42;;;21.20;30.60;;;;;;5136719;27;20055;-59
2022/04/04 09:04:33;;;;;;;6.93;2.03;;;21.20;30.70;;;;;;5137465;27;20071;-58
2022/04/04 09:07:03;;;;;;;3.97;2.03;;;21.20;30.80;;;;;;5137528;27;20095;-60
2022/04/04 09:09:40;;;;;;;6.07;1.70;;;21.20;30.80;;;;;;5138837;27;20020;-59
2022/04/04 09:12:10;;;;;;;5.47;1.83;;;21.10;30.90;;;;;;5139907;27;20070;-60
2022/04/04 09:14:51;;;;;;;6.05;1.80;;;21.10;31.50;;;;;;5139737;27;20151;-60
2022/04/04 09:17:17;;;;;;;3.63;1.60;;;21.20;31.00;;;;;;5138915;27;20090;-60
2022/04/04 09:19:44;;;;;;;5.85;1.60;;;21.10;31.00;;;;;;5138213;27;20026;-60
2022/04/04 09:22:11;;;;;;;5.18;1.73;;;21.10;31.10;;;;;;5138084;27;20047;-59
2022/04/04 09:24:47;;;;;;;5.32;1.45;;;21.20;31.10;;;;;;5137529;27;20090;-60
2022/04/04 09:27:17;;;;;;;2.70;1.48;;;21.20;31.20;;;;;;5136922;27;20035;-59
2022/04/04 09:29:43;;;;;;;9.82;1.77;;;21.20;31.20;;;;;;5137429;27;20094;-59
2022/04/04 09:32:12;;;;;;;4.95;1.90;;;21.20;31.30;;;;;;5119239;27;20432;-60
2022/04/04 09:35:13;;;;;;;9.30;1.48;;;21.20;31.30;;;;;;5136926;27;20038;-59
2022/04/04 09:37:40;;;;;;;5.28;1.88;;;21.20;31.30;;;;;;5136521;27;20057;-59
2022/04/04 09:40:12;;;;;;;7.68;1.67;;;21.20;31.40;;;;;;5118646;27;20049;-60
2022/04/04 09:42:38;;;;;;;4.50;1.67;;;21.20;31.40;;;;;;5136569;27;20023;-59
2022/04/04 09:45:09;;;;;;;3.30;1.38;;;21.20;31.40;;;;;;5136206;27;20027;-59
2022/04/04 09:47:48;;;;;;;3.22;1.20;;;21.30;31.40;;;;;;5136218;27;20015;-60
2022/04/04 09:50:32;;;;;;;3.50;1.65;;;21.40;31.30;;;;;;5136999;27;20020;-59
2022/04/04 09:53:10;;;;;;;3.55;1.63;;;21.40;31.40;;;;;;5137927;27;20011;-60
2022/04/04 09:55:38;;;;;;;3.83;1.75;;;21.40;31.40;;;;;;5137210;27;20011;-59
2022/04/04 09:58:06;;;;;;;5.40;1.67;;;21.40;31.60;;;;;;5137720;27;20015;-60
2022/04/04 10:00:32;;;;;;;3.92;1.40;;;21.40;31.60;;;;;;5138206;27;20023;-60
2022/04/04 10:02:58;;;;;;;18.45;2.15;;;21.40;31.60;;;;;;5119282;27;20019;-61
2022/04/04 10:05:25;;;;;;;5.00;1.60;;;21.40;31.60;;;;;;5117488;27;20031;-59
2022/04/04 10:07:53;;;;;;;3.50;1.63;;;21.40;31.60;;;;;;5135538;27;20067;-60
2022/04/04 10:10:19;;;;;;;4.60;1.45;;;21.40;31.70;;;;;;5135198;27;20031;-60
2022/04/04 10:12:45;;;;;;;3.35;1.42;;;21.40;31.60;;;;;;5136156;27;20007;-59
2022/04/04 10:15:12;;;;;;;4.47;1.55;;;21.40;31.70;;;;;;5118264;27;20011;-60
2022/04/04 10:17:38;;;;;;;4.88;1.50;;;21.50;31.70;;;;;;5101022;27;20389;-61
2022/04/04 10:20:05;;;;;;;3.95;1.60;;;21.50;31.60;;;;;;5135512;27;20011;-60
2022/04/04 10:22:31;;;;;;;4.00;1.58;;;21.60;31.70;;;;;;5113155;28;20054;-60
2022/04/04 10:24:57;;;;;;;2.50;1.35;;;21.60;31.70;;;;;;5113432;28;20019;-61
2022/04/04 10:27:27;;;;;;;5.07;1.75;;;21.60;31.70;;;;;;5113280;28;20052;-60
2022/04/04 10:30:02;;;;;;;3.97;1.73;;;21.50;31.70;;;;;;5114245;28;20016;-60
2022/04/04 10:32:28;;;;;;;3.53;1.85;;;21.50;31.80;;;;;;5114085;28;20016;-60
2022/04/04 10:34:55;;;;;;;5.75;1.63;;;21.60;31.80;;;;;;5114430;28;20019;-61
2022/04/04 10:37:25;;;;;;;3.45;1.48;;;21.60;31.80;;;;;;5113245;28;20028;-57
2022/04/04 10:39:50;;;;;;;2.20;1.27;;;21.60;31.80;;;;;;5096803;28;20095;-58
2022/04/04 10:42:46;;;;;;;3.38;1.35;;;21.60;31.80;;;;;;5114286;28;20043;-57
2022/04/04 10:45:13;;;;;;;4.50;1.45;;;21.60;31.80;;;;;;5014902;28;20112;-58
2022/04/04 10:47:42;;;;;;;1.90;1.00;;;21.60;31.90;;;;;;5031368;28;20029;-58
2022/04/04 10:50:23;;;;;;;2.53;1.42;;;21.70;31.90;;;;;;5032204;28;20037;-59
2022/04/04 10:52:50;;;;;;;5.63;1.48;;;21.70;32.00;;;;;;5032111;28;20026;-59
2022/04/04 10:55:28;;;;;;;4.82;1.20;;;21.70;32.00;;;;;;5032013;28;20018;-58
2022/04/04 10:58:01;;;;;;;3.00;1.58;;;21.70;31.90;;;;;;5031668;28;20098;-59
2022/04/04 11:00:34;;;;;;;4.47;1.20;;;21.70;32.00;;;;;;5015562;28;20105;-59
2022/04/04 11:03:04;;;;;;;5.38;1.60;;;21.80;32.10;;;;;;5031912;28;20025;-59
2022/04/04 11:08:31;;;;;;;3.72;1.63;;;21.70;32.10;;;;;;5031484;28;20032;-59
2022/04/04 11:10:57;;;;;;;4.70;1.38;;;21.80;32.20;;;;;;5031170;28;20014;-59
2022/04/04 11:13:24;;;;;;;2.20;1.00;;;21.80;32.20;;;;;;5014994;28;20414;-59
2022/04/04 11:15:55;;;;;;;4.00;1.50;;;21.80;32.30;;;;;;5014822;28;20018;-59
2022/04/04 11:18:21;;;;;;;6.07;1.50;;;21.80;32.20;;;;;;5031255;28;20026;-58
2022/04/04 11:20:51;;;;;;;5.72;1.50;;;21.80;32.80;;;;;;5045990;28;20027;-58
2022/04/04 11:23:17;;;;;;;4.25;1.10;;;21.80;32.40;;;;;;5134476;27;20071;-58
2022/04/04 11:25:52;;;;;;;5.90;1.75;;;21.80;32.50;;;;;;5134273;28;20020;-59
2022/04/04 11:28:20;;;;;;;3.20;1.42;;;21.80;32.50;;;;;;5133819;28;20024;-58
2022/04/04 11:30:46;;;;;;;2.53;1.17;;;21.80;32.70;;;;;;5133931;28;20076;-59
2022/04/04 11:33:22;;;;;;;2.95;1.30;;;21.80;32.70;;;;;;5115911;28;20473;-59
2022/04/04 11:35:48;;;;;;;3.30;1.60;;;21.90;32.60;;;;;;5133771;28;20098;-59
2022/04/04 11:38:17;;;;;;;4.35;1.38;;;21.90;32.70;;;;;;5133981;28;20039;-58
2022/04/04 11:40:45;;;;;;;2.90;1.13;;;21.90;32.80;;;;;;5116151;28;20042;-59
2022/04/04 11:43:14;;;;;;;2.63;1.02;;;21.80;32.80;;;;;;5134029;28;20084;-59
2022/04/04 11:45:41;;;;;;;3.65;1.50;;;21.90;32.80;;;;;;5115354;28;20026;-59
2022/04/04 11:48:14;;;;;;;4.95;1.25;;;21.90;32.90;;;;;;5133490;28;20030;-58
2022/04/04 11:50:40;;;;;;;6.22;1.48;;;22.00;32.90;;;;;;5133828;28;20019;-59
2022/04/04 11:53:16;;;;;;;3.30;1.30;;;22.00;32.90;;;;;;5133820;28;20010;-58
2022/04/04 11:55:45;;;;;;;2.35;1.30;;;21.90;33.00;;;;;;5135175;27;20011;-59
2022/04/04 11:58:12;;;;;;;3.85;1.20;;;21.90;33.00;;;;;;5137419;27;20459;-58
2022/04/04 12:00:43;;;;;;;4.50;1.35;;;21.90;33.00;;;;;;5119169;27;20106;-59
2022/04/04 12:03:13;;;;;;;2.53;1.10;;;22.00;33.10;;;;;;5137405;27;20012;-57
2022/04/04 12:05:39;;;;;;;3.33;1.50;;;22.00;33.10;;;;;;5137824;27;20019;-58
2022/04/04 12:08:06;;;;;;;3.13;1.10;;;22.00;33.10;;;;;;5138087;27;20026;-58
2022/04/04 12:10:32;;;;;;;4.97;1.60;;;22.00;33.20;;;;;;5119776;27;20023;-58
2022/04/04 12:13:09;;;;;;;3.22;1.60;;;22.00;33.20;;;;;;5138355;27;20066;-58
2022/04/04 12:15:40;;;;;;;6.75;1.40;;;22.00;33.30;;;;;;5138347;27;20022;-59
2022/04/04 12:18:07;;;;;;;2.17;1.33;;;22.00;33.20;;;;;;5137616;27;20099;-58
2022/04/04 12:20:45;;;;;;;3.90;1.30;;;22.00;33.20;;;;;;5137934;27;20034;-58
2022/04/04 12:26:06;;;;;;;2.60;1.10;;;22.10;33.40;;;;;;5137755;27;20152;-58
2022/04/04 12:28:33;;;;;;;3.00;1.40;;;22.10;33.50;;;;;;5137486;27;20473;-58
2022/04/04 12:31:18;;;;;;;2.33;1.20;;;22.00;33.50;;;;;;5137706;27;20031;-59
2022/04/04 12:33:44;;;;;;;2.53;1.20;;;22.00;34.10;;;;;;5137284;27;20011;-57
2022/04/04 12:36:10;;;;;;;3.95;1.10;;;22.00;33.60;;;;;;5137871;27;20067;-58
2022/04/04 12:38:40;;;;;;;2.25;1.20;;;22.10;33.60;;;;;;5119526;27;20090;-60
2022/04/04 12:41:07;;;;;;;3.07;1.30;;;22.10;33.70;;;;;;5137708;27;20041;-59
2022/04/04 12:43:35;;;;;;;2.20;1.02;;;22.10;33.70;;;;;;5137344;27;20253;-60
2022/04/04 12:46:01;;;;;;;2.00;1.10;;;22.10;33.70;;;;;;5137142;27;20122;-59
2022/04/04 12:48:53;;;;;;;3.80;1.17;;;22.10;33.70;;;;;;5136983;27;20532;-60
2022/04/04 12:51:29;;;;;;;4.28;1.20;;;22.10;33.80;;;;;;5131989;27;20102;-60
2022/04/04 12:53:56;;;;;;;2.33;1.05;;;22.20;33.90;;;;;;5137026;27;20015;-59
2022/04/04 12:56:21;;;;;;;3.55;1.38;;;22.20;33.90;;;;;;5118836;27;20079;-60